ADDS METAR Data INFO
IDs: Format: Raw Decoded Include TAF

Data at: 2349 UTC 16 Oct 2017

KF46 162335Z AUTO 03004KT 10SM CLR 21/04 A3027 RMK AO2 T02060037
KF46 162315Z AUTO 02003KT 10SM CLR 21/03 A3027 RMK AO2 T02130034
KF46 162255Z AUTO 02006KT 10SM CLR 22/03 A3027 RMK AO2 T02180031
KF46 162235Z AUTO 05006KT 10SM CLR 22/04 A3027 RMK AO2 T02220035
KF46 162215Z AUTO 01005KT 10SM CLR 22/04 A3028 RMK AO2 T02240039
KF46 162155Z AUTO 03005KT 10SM CLR 22/04 A3028 RMK AO2 T02220038
KF46 162135Z AUTO 03004KT 10SM CLR 22/04 A3028 RMK AO2 T02230041
KF46 162115Z AUTO 03005KT 10SM CLR 22/04 A3028 RMK AO2 T02240042
KF46 162055Z AUTO 05005KT 10SM CLR 22/04 A3029 RMK AO2 T02220043
KF46 162035Z AUTO 35008KT 10SM CLR 22/04 A3029 RMK AO2 T02210042
KF46 162015Z AUTO 01008KT 10SM CLR 22/05 A3030 RMK AO2 T02200049
KF46 161955Z AUTO 05008KT 10SM CLR 22/04 A3031 RMK AO2 T02200043
KF46 161935Z AUTO 10SM CLR 21/04 A3033 RMK AO2 T02140043
KF46 161915Z AUTO 06007KT 10SM CLR 22/04 A3033 RMK AO2 T02150044
KF46 161855Z AUTO 04005KT 10SM CLR 21/05 A3035 RMK AO2 T02110045
KF46 161835Z AUTO 05010G16KT 10SM CLR 21/04 A3036 RMK AO2 T02060042
KF46 161815Z AUTO 03006KT 10SM CLR 20/05 A3038 RMK AO2 T02040051
KF46 161755Z AUTO 07006KT 10SM CLR 20/05 A3038 RMK AO2 T01980051 10198 20085
KF46 161735Z AUTO 04007KT 10SM CLR 20/06 A3039 RMK AO2 T01980058
KF46 161715Z AUTO 08006KT 10SM CLR 19/06 A3040 RMK AO2 T01930059
KF46 161655Z AUTO 03007KT 330V050 10SM CLR 18/05 A3041 RMK AO2 T01830053
KF46 161635Z AUTO 03008KT 10SM CLR 18/06 A3042 RMK AO2 T01830059
KF46 161615Z AUTO 07007KT 050V120 10SM CLR 18/06 A3042 RMK AO2 T01810064
KF46 161600Z AUTO 05008G14KT 10SM CLR 17/06 A3042 RMK AO2 T01670061
KF46 161535Z AUTO 05010KT 10SM CLR 17/06 A3043 RMK AO2 T01670060
KF46 161515Z AUTO 04007KT 10SM CLR 16/06 A3043 RMK AO2 T01610063
KF46 161455Z AUTO 04009KT 10SM CLR 15/06 A3043 RMK AO2 T01500061
KF46 161435Z AUTO 04008KT 10SM CLR 14/06 A3042 RMK AO2 T01390064
KF46 161415Z AUTO 03006KT 10SM CLR 12/06 A3041 RMK AO2 T01240063
KF46 161355Z AUTO 04006KT 10SM CLR 11/06 A3041 RMK AO2 T01110061
KF46 161335Z AUTO 02006KT 10SM CLR 10/06 A3040 RMK AO2 T00990059
KF46 161315Z AUTO 02006KT 10SM CLR 09/06 A3040 RMK AO2 T00910056
KF46 161255Z AUTO 01006KT 10SM CLR 09/06 A3039 RMK AO2 T00860055
KF46 161235Z AUTO 02005KT 10SM CLR 09/05 A3039 RMK AO2 T00850053
KF46 161215Z AUTO 01004KT 10SM CLR 09/05 A3038 RMK AO2 T00870054
KF46 161155Z AUTO 02004KT 10SM CLR 09/06 A3038 RMK AO2 T00880055 10125 20088
KF46 161135Z AUTO 02004KT 10SM CLR 09/06 A3038 RMK AO2 T00920056
KF46 161115Z AUTO 02006KT 10SM CLR 10/06 A3037 RMK AO2 T00960058
KF46 161055Z AUTO 01005KT 10SM CLR 10/06 A3037 RMK AO2 T01000059
KF46 161035Z AUTO 01006KT 10SM CLR 10/06 A3036 RMK AO2 T01010060
KF46 161015Z AUTO 01006KT 10SM CLR 10/06 A3036 RMK AO2 T01020061
KF46 160955Z AUTO 01005KT 10SM CLR 10/06 A3036 RMK AO2 T01000061
KF46 160935Z AUTO 01006KT 10SM CLR 10/06 A3036 RMK AO2 T01030060
KF46 160915Z AUTO 36006KT 10SM CLR 11/06 A3036 RMK AO2 T01050060
KF46 160855Z AUTO 36007KT 10SM CLR 11/06 A3036 RMK AO2 T01060060
KF46 160835Z AUTO 01006KT 10SM CLR 11/06 A3036 RMK AO2 T01080061
KF46 160815Z AUTO 36006KT 10SM CLR 11/06 A3036 RMK AO2 T01110063
KF46 160755Z AUTO 01005KT 10SM CLR 11/07 A3036 RMK AO2 T01120065
KF46 160735Z AUTO 10SM CLR 12/07 A3037 RMK AO2 T01150065
KF46 160715Z AUTO 01005KT 10SM CLR 12/07 A3036 RMK AO2 T01180070
KF46 160655Z AUTO 01005KT 10SM CLR 12/07 A3036 RMK AO2 T01180071
KF46 160635Z AUTO 01004KT 10SM CLR 12/07 A3036 RMK AO2 T01200069
KF46 160615Z AUTO 01005KT 10SM CLR 13/07 A3035 RMK AO2 T01250067
KF46 160555Z AUTO 01005KT 10SM CLR 13/07 A3035 RMK AO2 T01250065 10196 20124 402500124
KF46 160535Z AUTO 36005KT 10SM CLR 13/06 A3035 RMK AO2 T01260062
KF46 160515Z AUTO 01005KT 10SM CLR 13/06 A3035 RMK AO2 T01250060
KF46 160455Z AUTO 01005KT 10SM CLR 13/06 A3036 RMK AO2 T01300060
KF46 160435Z AUTO 01005KT 10SM CLR 13/06 A3035 RMK AO2 T01330060
KF46 160415Z AUTO 01004KT 10SM CLR 13/06 A3036 RMK AO2 T01330060
KF46 160355Z AUTO 02003KT 10SM CLR 14/06 A3035 RMK AO2 T01380062
KF46 160335Z AUTO 36004KT 10SM CLR 14/06 A3035 RMK AO2 T01440058
KF46 160315Z AUTO 36004KT 10SM CLR 15/06 A3035 RMK AO2 T01450057
KF46 160255Z AUTO 01003KT 10SM CLR 15/06 A3035 RMK AO2 T01520057
KF46 160235Z AUTO 01004KT 10SM CLR 16/06 A3034 RMK AO2 T01590057
KF46 160215Z AUTO 02003KT 10SM CLR 17/06 A3033 RMK AO2 T01650055
KF46 160155Z AUTO 36005KT 10SM CLR 16/05 A3032 RMK AO2 T01640053
KF46 160135Z AUTO 01003KT 10SM CLR 17/05 A3032 RMK AO2 T01660048
KF46 160115Z AUTO 01007KT 10SM CLR 18/05 A3030 RMK AO2 T01750046
KF46 160055Z AUTO 01008G15KT 10SM CLR 18/05 A3030 RMK AO2 T01800045
KF46 160035Z AUTO 01008KT 10SM CLR 19/05 A3028 RMK AO2 T01850049
KF46 160015Z AUTO 01008KT 10SM CLR 19/05 A3028 RMK AO2 T01910050
KF46 152355Z AUTO 36008KT 10SM CLR 20/05 A3027 RMK AO2 T01970052 10224 20193
KF46 152335Z AUTO 36008G15KT 10SM CLR 21/05 A3026 RMK AO2 T02070046
KF46 152315Z AUTO 36011G18KT 10SM CLR 21/05 A3025 RMK AO2 T02130050
KF46 152255Z AUTO 36012G18KT 10SM CLR 22/05 A3025 RMK AO2 T02150047
KF46 152235Z AUTO 35010G19KT 10SM CLR 22/06 A3024 RMK AO2 T02180063
KF46 152215Z AUTO 36011G21KT 10SM CLR 22/06 A3024 RMK AO2 T02150060
KF46 152155Z AUTO 36013G19KT 10SM CLR 22/06 A3024 RMK AO2 T02160058
KF46 152135Z AUTO 36012G23KT 10SM CLR 22/06 A3024 RMK AO2 LTG DSNT S T02240063
KF46 152115Z AUTO 36013G18KT 330V030 10SM CLR 22/07 A3024 RMK AO2 T02190072
KF46 152055Z AUTO 36011G20KT 10SM CLR 22/07 A3024 RMK AO2 T02170068
KF46 152035Z AUTO 34016G22KT 10SM CLR 22/08 A3025 RMK AO2 LTG DSNT S T02190078
KF46 152015Z AUTO 34019G26KT 10SM CLR 22/08 A3024 RMK AO2 T02190080
KF46 151955Z AUTO 35014G21KT 10SM CLR 21/08 A3025 RMK AO2 T02120078
KF46 151935Z AUTO 35012G19KT 10SM CLR 22/08 A3025 RMK AO2 T02200080
KF46 151915Z AUTO 35013G19KT 10SM CLR 21/08 A3026 RMK AO2 T02110084
KF46 151855Z AUTO 35009G19KT 10SM CLR 20/09 A3026 RMK AO2 T02030086
KF46 151835Z AUTO 36012G18KT 10SM CLR 20/09 A3027 RMK AO2 LTG DSNT S T02000086
KF46 151815Z AUTO 36012G17KT 10SM CLR 20/09 A3027 RMK AO2 T02020093
KF46 151755Z AUTO 36011G18KT 10SM CLR 19/09 A3028 RMK AO2 T01940085 10198 20154
KF46 151735Z AUTO 35014G19KT 10SM CLR 19/09 A3028 RMK AO2 T01900092
KF46 151715Z AUTO 36013G24KT 320V020 10SM CLR 19/09 A3028 RMK AO2 T01940093
KF46 151655Z AUTO 36012G24KT 10SM CLR 19/10 A3027 RMK AO2 T01890098
KF46 151635Z AUTO 01013G19KT 10SM CLR 17/10 A3028 RMK AO2 T01660100
KF46 151615Z AUTO 35011G17KT 10SM SCT020 16/11 A3028 RMK AO2 T01610107
KF46 151555Z AUTO 01017G23KT 10SM OVC020 17/11 A3027 RMK AO2 T01690113
KF46 151535Z AUTO 36013G21KT 10SM OVC018 16/12 A3026 RMK AO2 T01620117
KF46 151515Z AUTO 01015G24KT 10SM OVC016 16/12 A3026 RMK AO2 T01580122
KF46 151455Z AUTO 36012G22KT 10SM OVC014 16/14 A3025 RMK AO2 T01560135
KF46 151435Z AUTO 35015G23KT 10SM -RA OVC014 16/15 A3023 RMK AO2 LTG DSNT NE T01630146
KF46 151415Z AUTO 34016KT 10SM OVC014 18/16 A3021 RMK AO2 LTG DSNT NE T01750156
KF46 151355Z AUTO 36011G17KT 10SM BKN016 OVC060 18/15 A3021 RMK AO2 T01750154
KF46 151335Z AUTO 36014G20KT 10SM OVC016 17/15 A3020 RMK AO2 T01720152
KF46 151315Z AUTO 01012G18KT 10SM BKN016 BKN039 OVC045 17/15 A3019 RMK AO2 T01710151
KF46 151255Z AUTO 36011G19KT 10SM BKN016 BKN037 OVC045 17/15 A3018 RMK AO2 T01700150
KF46 151235Z AUTO 01014G20KT 10SM -RA SCT016 OVC035 17/15 A3017 RMK AO2 T01710154
KF46 151215Z AUTO 02013G22KT 10SM OVC033 17/15 A3015 RMK AO2 LTG DSNT NE T01700151
KF46 151155Z AUTO 01012G20KT 10SM SCT013 BKN036 OVC085 17/15 A3015 RMK AO2 T01700152 10250 20170